Meteo Giornale » Osservazioni meteo Italia » Ronchi Dei Legionari

ore: 02:20 - Osservazioni Meteo Ronchi Dei Legionari
Lat. 45° 49' N Lon. 13° 29' E Alt. 12 metri s.l.m.

coperto_pioggia Europe/Rome

20 °C

Pioggia Debole

Temp. 24 Ore

19 °C

28 °C

Est

14.8 Km/h

Dew point 18 °C

Umidità 88 %

Visibilità  10 Km

Il sole sorge alle ore 05:52

Il sole tramonta alle ore 20:31

Data e Ora Cielo e Fenomeni T °C DP °C Um. % Pres. hPa Vis. km Vento km/h
Oggi h: 02:20 coperto_pioggia Pioggia Debole 20 18 88 1007 10 E 14.8
Oggi h: 01:50 coperto_pioggia Pioggia Debole 20 18 88 1008 10 E/NE 11.1
Oggi h: 01:20 coperto_pioggia Pioggia Debole 21 18 82 1008 10 E 13
Oggi h: 00:50 coperto_pioggia Pioggia 21 18 82 1009 10 N 3.7
Oggi h: 00:20 coperto_pioggia Pioggia 21 18 82 1009 10 NO 7.4
Ieri h: 23:50 coperto_pioggia Pioggia Debole 22 18 78 1009 10 N/NO 11.1
Ieri h: 23:20 coperto_pioggia Pioggia Debole 22 20 88 1009 10 N 1.8
Ieri h: 22:50 coperto Coperto 23 17 68 1009 10 N 3.7
Ieri h: 22:20 coperto Coperto 23 17 68 1009 10 N 3.7
Ieri h: 21:50 molto_nuvoloso Molto Nuvoloso 23 17 68 1009 10 E/NE 9.3
Ieri h: 21:20 coperto Coperto 23 18 73 1010 10 N/NE 7.4
Ieri h: 20:50 nuvoloso Nuvoloso 24 18 69 1010 10 N 5.5
Ieri h: 20:20 molto_nuvoloso Molto Nuvoloso 24 18 69 1010 10 N 5.5
Ieri h: 19:50 molto_nuvoloso Molto Nuvoloso 25 18 65 1010 10 N 5.5
Ieri h: 19:20 molto_nuvoloso Molto Nuvoloso 25 19 69 1010 10 N 7.4
Ieri h: 18:50 molto_nuvoloso Molto Nuvoloso 26 18 61 1010 10 N 3.7
Ieri h: 18:20 molto_nuvoloso Molto Nuvoloso 27 18 57 1010 10 N 3.7
Ieri h: 17:50 molto_nuvoloso Molto Nuvoloso 27 18 57 1011 10 N 5.5
Ieri h: 17:20 molto_nuvoloso Molto Nuvoloso 27 17 54 1011 10 N 5.5
Ieri h: 16:50 molto_nuvoloso Molto Nuvoloso 27 17 54 1011 10 SO 7.4
Ieri h: 16:20 molto_nuvoloso Molto Nuvoloso 27 16 50 1011 10 S/SO 11.1
Ieri h: 15:50 nuvoloso Nuvoloso 27 17 54 1011 10 S/SO 13
Ieri h: 15:20 molto_nuvoloso Molto Nuvoloso 27 16 50 1012 10 S/SO 16.7
Ieri h: 14:50 nuvoloso Nuvoloso 28 17 51 1012 10 S/SO 20.3
Ieri h: 14:20 poco_nuvoloso Poco Nuvoloso 27 16 50 1012 10 S/SO 22.2
Ieri h: 13:50 poco_nuvoloso Poco Nuvoloso 28 15 45 1012 10 S/SO 20.3
Ieri h: 13:20 molto_nuvoloso Molto Nuvoloso 28 17 51 1013 10 S/SO 16.7
Ieri h: 11:50 molto_nuvoloso Molto Nuvoloso 27 19 61 1013 10 S 13
Ieri h: 11:20 nuvoloso Nuvoloso 27 19 61 1013 10 S 13
Ieri h: 10:50 molto_nuvoloso Molto Nuvoloso 27 19 61 1013 10 SE 16.7
Ieri h: 10:20 poco_nuvoloso Poco Nuvoloso 27 19 61 1013 10 S/SE 14.8
Ieri h: 09:50 poco_nuvoloso Poco Nuvoloso 26 19 65 1013 10 S/SE 18.5
Ieri h: 09:20 molto_nuvoloso Molto Nuvoloso 26 19 65 1012 10 S/SE 14.8
Ieri h: 08:50 molto_nuvoloso Molto Nuvoloso 24 16 60 1012 10 E/SE 11.1
Ieri h: 08:20 nuvoloso Nuvoloso 24 16 60 1012 10 E/SE 16.7
Ieri h: 07:50 poco_nuvoloso Poco Nuvoloso 22 14 60 1012 10 E 7.4
Ieri h: 07:20 molto_nuvoloso Molto Nuvoloso 21 15 68 1012 10 N 5.5
Ieri h: 06:50 molto_nuvoloso Molto Nuvoloso 20 15 72 1012 10 N 5.5
Ieri h: 06:20 molto_nuvoloso Molto Nuvoloso 20 17 82 1012 10 N 5.5
Ieri h: 05:50 coperto Coperto 20 18 88 1012 10 N 5.5
Ieri h: 05:20 nuvoloso Nuvoloso 20 18 88 1012 10 N/NE 7.4
Ieri h: 04:50 sereno Sereno 19 18 93 1012 10 N 5.5
Ieri h: 04:20 poco_nuvoloso Poco Nuvoloso 20 18 88 1013 10 N 5.5
Ieri h: 03:50 molto_nuvoloso Molto Nuvoloso 21 18 82 1013 10 NE 9.3
Ieri h: 03:20 nuvoloso Nuvoloso 21 18 82 1013 10 N/NE 9.3
Ieri h: 02:50 molto_nuvoloso Molto Nuvoloso 20 17 82 1013 10 N 7.4